sensor_id;sensor_type;location;lat;lon;timestamp;pressure;altitude;pressure_sealevel;temperature;humidity
64192;BME280;50497;50.720;-2.084;2022-10-17T00:00:33;100971.31;;;15.39;100.00
64192;BME280;50497;50.720;-2.084;2022-10-17T00:02:59;100968.81;;;15.36;100.00
64192;BME280;50497;50.720;-2.084;2022-10-17T00:05:24;100962.75;;;15.32;100.00
64192;BME280;50497;50.720;-2.084;2022-10-17T00:07:51;100960.94;;;15.32;100.00
64192;BME280;50497;50.720;-2.084;2022-10-17T00:10:17;100969.59;;;15.38;100.00
64192;BME280;50497;50.720;-2.084;2022-10-17T00:12:42;100974.91;;;15.39;100.00
64192;BME280;50497;50.720;-2.084;2022-10-17T00:15:08;100962.66;;;15.33;100.00
64192;BME280;50497;50.720;-2.084;2022-10-17T00:17:33;100958.91;;;15.36;100.00
64192;BME280;50497;50.720;-2.084;2022-10-17T00:19:59;100953.31;;;15.39;100.00
64192;BME280;50497;50.720;-2.084;2022-10-17T00:22:26;100959.56;;;15.40;100.00
64192;BME280;50497;50.720;-2.084;2022-10-17T00:24:51;100965.16;;;15.37;100.00
64192;BME280;50497;50.720;-2.084;2022-10-17T00:27:17;100990.88;;;15.42;100.00
64192;BME280;50497;50.720;-2.084;2022-10-17T00:29:47;100988.75;;;15.47;100.00
64192;BME280;50497;50.720;-2.084;2022-10-17T00:32:12;100989.81;;;15.45;100.00
64192;BME280;50497;50.720;-2.084;2022-10-17T00:34:38;100992.50;;;15.45;100.00
64192;BME280;50497;50.720;-2.084;2022-10-17T00:37:03;100999.06;;;15.41;100.00
64192;BME280;50497;50.720;-2.084;2022-10-17T00:39:28;100985.22;;;15.32;100.00
64192;BME280;50497;50.720;-2.084;2022-10-17T00:41:54;101010.13;;;15.36;100.00
64192;BME280;50497;50.720;-2.084;2022-10-17T00:46:58;101018.13;;;15.38;100.00
64192;BME280;50497;50.720;-2.084;2022-10-17T00:49:25;101038.22;;;15.32;100.00
64192;BME280;50497;50.720;-2.084;2022-10-17T00:52:03;101032.00;;;15.31;100.00
64192;BME280;50497;50.720;-2.084;2022-10-17T00:54:33;101021.41;;;15.28;100.00
64192;BME280;50497;50.720;-2.084;2022-10-17T00:57:00;101052.19;;;15.39;100.00
64192;BME280;50497;50.720;-2.084;2022-10-17T00:59:27;101047.97;;;15.34;100.00
64192;BME280;50497;50.720;-2.084;2022-10-17T01:02:03;101061.84;;;15.43;100.00
64192;BME280;50497;50.720;-2.084;2022-10-17T01:04:29;101066.25;;;15.44;100.00
64192;BME280;50497;50.720;-2.084;2022-10-17T01:06:55;101068.94;;;15.44;100.00
64192;BME280;50497;50.720;-2.084;2022-10-17T01:09:20;101074.47;;;15.42;100.00
64192;BME280;50497;50.720;-2.084;2022-10-17T01:14:44;101085.81;;;15.47;100.00
64192;BME280;50497;50.720;-2.084;2022-10-17T01:23:29;101100.94;;;15.50;100.00
64192;BME280;50497;50.720;-2.084;2022-10-17T01:29:18;101120.28;;;15.57;100.00
64192;BME280;50497;50.720;-2.084;2022-10-17T01:32:01;101106.50;;;15.47;100.00
64192;BME280;50497;50.720;-2.084;2022-10-17T01:34:34;101122.31;;;15.53;100.00
64192;BME280;50497;50.720;-2.084;2022-10-17T01:37:17;101134.28;;;15.49;100.00
64192;BME280;50497;50.720;-2.084;2022-10-17T01:42:44;101144.56;;;15.57;100.00
64192;BME280;50497;50.720;-2.084;2022-10-17T01:45:13;101142.84;;;15.56;100.00
64192;BME280;50497;50.720;-2.084;2022-10-17T01:47:41;101137.72;;;15.51;100.00
64192;BME280;50497;50.720;-2.084;2022-10-17T01:50:14;101149.19;;;15.55;100.00
64192;BME280;50497;50.720;-2.084;2022-10-17T01:52:45;101140.72;;;15.46;100.00
64192;BME280;50497;50.720;-2.084;2022-10-17T01:55:18;101137.34;;;15.43;100.00
64192;BME280;50497;50.720;-2.084;2022-10-17T01:57:49;101128.50;;;15.41;100.00
64192;BME280;50497;50.720;-2.084;2022-10-17T02:00:22;101141.97;;;15.41;100.00
64192;BME280;50497;50.720;-2.084;2022-10-17T02:02:51;101154.19;;;15.46;100.00
64192;BME280;50497;50.720;-2.084;2022-10-17T02:05:21;101130.69;;;15.34;100.00
64192;BME280;50497;50.720;-2.084;2022-10-17T02:07:49;101139.19;;;15.42;100.00
64192;BME280;50497;50.720;-2.084;2022-10-17T02:21:17;101097.63;;;15.16;100.00
64192;BME280;50497;50.720;-2.084;2022-10-17T02:23:52;101118.03;;;15.20;100.00
64192;BME280;50497;50.720;-2.084;2022-10-17T02:26:33;101114.00;;;15.13;100.00
64192;BME280;50497;50.720;-2.084;2022-10-17T02:31:45;101099.44;;;15.01;100.00
64192;BME280;50497;50.720;-2.084;2022-10-17T02:34:20;101116.00;;;15.09;100.00
64192;BME280;50497;50.720;-2.084;2022-10-17T02:36:52;101102.91;;;15.03;100.00
64192;BME280;50497;50.720;-2.084;2022-10-17T02:39:21;101088.66;;;15.01;100.00
64192;BME280;50497;50.720;-2.084;2022-10-17T02:41:48;101091.25;;;15.03;100.00
64192;BME280;50497;50.720;-2.084;2022-10-17T02:44:15;101090.06;;;14.92;100.00
64192;BME280;50497;50.720;-2.084;2022-10-17T02:46:41;101088.16;;;14.94;100.00
64192;BME280;50497;50.720;-2.084;2022-10-17T02:49:20;101091.34;;;15.01;100.00
64192;BME280;50497;50.720;-2.084;2022-10-17T02:52:03;101100.47;;;14.99;100.00
64192;BME280;50497;50.720;-2.084;2022-10-17T02:54:36;101097.00;;;14.96;100.00
64192;BME280;50497;50.720;-2.084;2022-10-17T02:57:15;101116.22;;;14.90;100.00
64192;BME280;50497;50.720;-2.084;2022-10-17T02:59:44;101091.22;;;14.88;100.00
64192;BME280;50497;50.720;-2.084;2022-10-17T03:02:09;101103.72;;;14.89;100.00
64192;BME280;50497;50.720;-2.084;2022-10-17T03:04:35;101117.22;;;14.89;100.00
64192;BME280;50497;50.720;-2.084;2022-10-17T03:07:00;101117.38;;;14.86;100.00
64192;BME280;50497;50.720;-2.084;2022-10-17T03:09:26;101124.50;;;14.87;100.00
64192;BME280;50497;50.720;-2.084;2022-10-17T03:11:51;101124.50;;;14.87;100.00
64192;BME280;50497;50.720;-2.084;2022-10-17T03:14:17;101123.03;;;14.82;100.00
64192;BME280;50497;50.720;-2.084;2022-10-17T03:16:42;101145.19;;;14.87;100.00
64192;BME280;50497;50.720;-2.084;2022-10-17T03:19:08;101129.66;;;14.76;100.00
64192;BME280;50497;50.720;-2.084;2022-10-17T03:21:33;101122.97;;;14.67;100.00
64192;BME280;50497;50.720;-2.084;2022-10-17T03:24:01;101128.34;;;14.67;100.00
64192;BME280;50497;50.720;-2.084;2022-10-17T03:26:26;101129.41;;;14.65;100.00
64192;BME280;50497;50.720;-2.084;2022-10-17T03:28:53;101147.97;;;14.53;100.00
64192;BME280;50497;50.720;-2.084;2022-10-17T03:31:19;101140.16;;;14.49;100.00
64192;BME280;50497;50.720;-2.084;2022-10-17T03:33:44;101140.72;;;14.39;100.00
64192;BME280;50497;50.720;-2.084;2022-10-17T03:36:14;101138.44;;;14.32;100.00
64192;BME280;50497;50.720;-2.084;2022-10-17T03:38:40;101150.88;;;14.34;100.00
64192;BME280;50497;50.720;-2.084;2022-10-17T03:41:06;101144.69;;;14.32;100.00
64192;BME280;50497;50.720;-2.084;2022-10-17T03:43:32;101122.81;;;14.22;100.00
64192;BME280;50497;50.720;-2.084;2022-10-17T03:45:58;101114.28;;;14.14;100.00
64192;BME280;50497;50.720;-2.084;2022-10-17T03:48:25;101131.94;;;14.20;100.00
64192;BME280;50497;50.720;-2.084;2022-10-17T03:50:50;101138.50;;;14.14;100.00
64192;BME280;50497;50.720;-2.084;2022-10-17T03:53:16;101143.38;;;14.08;100.00
64192;BME280;50497;50.720;-2.084;2022-10-17T03:55:41;101142.16;;;13.97;100.00
64192;BME280;50497;50.720;-2.084;2022-10-17T03:58:07;101148.66;;;13.93;100.00
64192;BME280;50497;50.720;-2.084;2022-10-17T04:00:35;101137.38;;;13.86;100.00
64192;BME280;50497;50.720;-2.084;2022-10-17T04:03:00;101132.84;;;13.87;100.00
64192;BME280;50497;50.720;-2.084;2022-10-17T04:05:26;101158.38;;;13.96;100.00
64192;BME280;50497;50.720;-2.084;2022-10-17T04:07:51;101156.72;;;13.93;100.00
64192;BME280;50497;50.720;-2.084;2022-10-17T04:10:17;101173.13;;;13.89;100.00
64192;BME280;50497;50.720;-2.084;2022-10-17T04:12:42;101187.19;;;13.94;100.00
64192;BME280;50497;50.720;-2.084;2022-10-17T04:15:08;101190.41;;;14.00;100.00
64192;BME280;50497;50.720;-2.084;2022-10-17T04:17:33;101159.50;;;13.92;100.00
64192;BME280;50497;50.720;-2.084;2022-10-17T04:19:59;101173.19;;;13.87;100.00
64192;BME280;50497;50.720;-2.084;2022-10-17T04:22:24;101195.69;;;14.02;100.00
64192;BME280;50497;50.720;-2.084;2022-10-17T04:24:50;101195.25;;;13.94;100.00
64192;BME280;50497;50.720;-2.084;2022-10-17T04:27:15;101196.03;;;13.96;100.00
64192;BME280;50497;50.720;-2.084;2022-10-17T04:29:40;101188.31;;;13.90;100.00
64192;BME280;50497;50.720;-2.084;2022-10-17T04:32:06;101202.31;;;13.96;100.00
64192;BME280;50497;50.720;-2.084;2022-10-17T04:34:31;101199.84;;;13.92;100.00
64192;BME280;50497;50.720;-2.084;2022-10-17T04:36:56;101203.25;;;13.95;100.00
64192;BME280;50497;50.720;-2.084;2022-10-17T04:39:22;101228.94;;;14.01;100.00
64192;BME280;50497;50.720;-2.084;2022-10-17T04:41:47;101215.84;;;13.95;100.00
64192;BME280;50497;50.720;-2.084;2022-10-17T04:44:13;101221.41;;;14.08;100.00
64192;BME280;50497;50.720;-2.084;2022-10-17T04:46:39;101232.00;;;14.11;100.00
64192;BME280;50497;50.720;-2.084;2022-10-17T04:49:04;101228.53;;;14.09;100.00
64192;BME280;50497;50.720;-2.084;2022-10-17T04:51:30;101228.75;;;14.04;100.00
64192;BME280;50497;50.720;-2.084;2022-10-17T04:53:55;101233.91;;;14.09;100.00
64192;BME280;50497;50.720;-2.084;2022-10-17T04:56:22;101236.59;;;14.09;100.00
64192;BME280;50497;50.720;-2.084;2022-10-17T04:58:48;101251.19;;;14.20;100.00
64192;BME280;50497;50.720;-2.084;2022-10-17T05:01:16;101249.47;;;14.19;100.00
64192;BME280;50497;50.720;-2.084;2022-10-17T05:03:42;101261.47;;;14.30;100.00
64192;BME280;50497;50.720;-2.084;2022-10-17T05:06:10;101280.06;;;14.34;100.00
64192;BME280;50497;50.720;-2.084;2022-10-17T05:08:36;101290.84;;;14.34;100.00
64192;BME280;50497;50.720;-2.084;2022-10-17T05:11:03;101283.19;;;14.27;100.00
64192;BME280;50497;50.720;-2.084;2022-10-17T05:13:28;101281.88;;;14.34;100.00
64192;BME280;50497;50.720;-2.084;2022-10-17T05:15:58;101288.41;;;14.30;100.00
64192;BME280;50497;50.720;-2.084;2022-10-17T05:18:24;101310.03;;;14.44;100.00
64192;BME280;50497;50.720;-2.084;2022-10-17T05:20:49;101315.41;;;14.44;100.00
64192;BME280;50497;50.720;-2.084;2022-10-17T05:23:14;101308.56;;;14.38;100.00
64192;BME280;50497;50.720;-2.084;2022-10-17T05:25:40;101325.47;;;14.40;100.00
64192;BME280;50497;50.720;-2.084;2022-10-17T05:28:05;101308.56;;;14.38;100.00
64192;BME280;50497;50.720;-2.084;2022-10-17T05:30:30;101321.69;;;14.45;100.00
64192;BME280;50497;50.720;-2.084;2022-10-17T05:32:56;101315.94;;;14.35;100.00
64192;BME280;50497;50.720;-2.084;2022-10-17T05:35:21;101325.84;;;14.34;100.00
64192;BME280;50497;50.720;-2.084;2022-10-17T05:37:47;101331.75;;;14.41;100.00
64192;BME280;50497;50.720;-2.084;2022-10-17T05:40:12;101342.53;;;14.41;100.00
64192;BME280;50497;50.720;-2.084;2022-10-17T05:42:38;101352.25;;;14.44;100.00
64192;BME280;50497;50.720;-2.084;2022-10-17T05:45:03;101359.22;;;14.48;100.00
64192;BME280;50497;50.720;-2.084;2022-10-17T05:47:29;101370.22;;;14.43;100.00
64192;BME280;50497;50.720;-2.084;2022-10-17T05:49:54;101358.03;;;14.36;100.00
64192;BME280;50497;50.720;-2.084;2022-10-17T05:52:20;101382.72;;;14.44;100.00
64192;BME280;50497;50.720;-2.084;2022-10-17T05:54:45;101386.38;;;14.43;100.00
64192;BME280;50497;50.720;-2.084;2022-10-17T05:57:11;101373.25;;;14.37;100.00
64192;BME280;50497;50.720;-2.084;2022-10-17T05:59:36;101378.47;;;14.40;100.00
64192;BME280;50497;50.720;-2.084;2022-10-17T06:02:02;101389.06;;;14.43;100.00
64192;BME280;50497;50.720;-2.084;2022-10-17T06:04:27;101384.78;;;14.39;100.00
64192;BME280;50497;50.720;-2.084;2022-10-17T06:06:53;101375.84;;;14.38;100.00
64192;BME280;50497;50.720;-2.084;2022-10-17T06:09:21;101402.19;;;14.49;100.00
64192;BME280;50497;50.720;-2.084;2022-10-17T06:11:49;101393.25;;;14.49;100.00
64192;BME280;50497;50.720;-2.084;2022-10-17T06:14:14;101375.00;;;14.38;100.00
64192;BME280;50497;50.720;-2.084;2022-10-17T06:16:40;101383.63;;;14.45;100.00
64192;BME280;50497;50.720;-2.084;2022-10-17T06:19:05;101391.31;;;14.35;100.00
64192;BME280;50497;50.720;-2.084;2022-10-17T06:21:31;101412.59;;;14.39;100.00
64192;BME280;50497;50.720;-2.084;2022-10-17T06:24:00;101397.00;;;14.29;100.00
64192;BME280;50497;50.720;-2.084;2022-10-17T06:26:26;101419.25;;;14.32;100.00
64192;BME280;50497;50.720;-2.084;2022-10-17T06:28:54;101400.97;;;14.21;100.00
64192;BME280;50497;50.720;-2.084;2022-10-17T06:31:19;101411.81;;;14.20;100.00
64192;BME280;50497;50.720;-2.084;2022-10-17T06:33:45;101414.25;;;14.07;100.00
64192;BME280;50497;50.720;-2.084;2022-10-17T06:36:12;101429.06;;;14.16;100.00
64192;BME280;50497;50.720;-2.084;2022-10-17T06:38:39;101438.09;;;14.15;100.00
64192;BME280;50497;50.720;-2.084;2022-10-17T06:41:09;101431.53;;;14.03;100.00
64192;BME280;50497;50.720;-2.084;2022-10-17T06:43:41;101446.69;;;14.04;100.00
64192;BME280;50497;50.720;-2.084;2022-10-17T06:46:14;101448.31;;;14.08;100.00
64192;BME280;50497;50.720;-2.084;2022-10-17T06:48:41;101453.91;;;14.03;100.00
64192;BME280;50497;50.720;-2.084;2022-10-17T06:51:07;101461.91;;;14.05;100.00
64192;BME280;50497;50.720;-2.084;2022-10-17T06:53:37;101481.16;;;14.15;100.00
64192;BME280;50497;50.720;-2.084;2022-10-17T06:56:08;101492.72;;;14.17;100.00
64192;BME280;50497;50.720;-2.084;2022-10-17T06:58:36;101492.63;;;14.18;100.00
64192;BME280;50497;50.720;-2.084;2022-10-17T07:01:07;101503.31;;;14.20;100.00
64192;BME280;50497;50.720;-2.084;2022-10-17T07:03:36;101488.25;;;14.16;100.00
64192;BME280;50497;50.720;-2.084;2022-10-17T07:06:02;101510.13;;;14.27;100.00
64192;BME280;50497;50.720;-2.084;2022-10-17T07:08:28;101525.41;;;14.27;100.00
64192;BME280;50497;50.720;-2.084;2022-10-17T07:10:54;101526.34;;;14.26;100.00
64192;BME280;50497;50.720;-2.084;2022-10-17T07:13:21;101533.25;;;14.31;100.00
64192;BME280;50497;50.720;-2.084;2022-10-17T07:15:46;101532.28;;;14.32;100.00
64192;BME280;50497;50.720;-2.084;2022-10-17T07:18:12;101539.34;;;14.35;100.00
64192;BME280;50497;50.720;-2.084;2022-10-17T07:20:41;101550.06;;;14.36;100.00
64192;BME280;50497;50.720;-2.084;2022-10-17T07:23:06;101555.38;;;14.38;100.00
64192;BME280;50497;50.720;-2.084;2022-10-17T07:25:33;101543.13;;;14.31;100.00
64192;BME280;50497;50.720;-2.084;2022-10-17T07:28:01;101557.91;;;14.41;100.00
64192;BME280;50497;50.720;-2.084;2022-10-17T07:30:27;101559.00;;;14.37;100.00
64192;BME280;50497;50.720;-2.084;2022-10-17T07:32:53;101559.63;;;14.42;100.00
64192;BME280;50497;50.720;-2.084;2022-10-17T07:35:19;101557.00;;;14.40;100.00
64192;BME280;50497;50.720;-2.084;2022-10-17T07:37:46;101573.16;;;14.40;100.00
64192;BME280;50497;50.720;-2.084;2022-10-17T07:40:11;101577.63;;;14.41;100.00
64192;BME280;50497;50.720;-2.084;2022-10-17T07:42:41;101570.25;;;14.45;100.00
64192;BME280;50497;50.720;-2.084;2022-10-17T07:45:06;101578.41;;;14.44;100.00
64192;BME280;50497;50.720;-2.084;2022-10-17T07:47:32;101580.44;;;14.38;100.00
64192;BME280;50497;50.720;-2.084;2022-10-17T07:50:01;101585.53;;;14.45;100.00
64192;BME280;50497;50.720;-2.084;2022-10-17T07:52:30;101589.09;;;14.45;100.00
64192;BME280;50497;50.720;-2.084;2022-10-17T07:54:56;101613.03;;;14.51;100.00
64192;BME280;50497;50.720;-2.084;2022-10-17T07:57:21;101614.75;;;14.52;100.00
64192;BME280;50497;50.720;-2.084;2022-10-17T07:59:49;101626.13;;;14.59;100.00
64192;BME280;50497;50.720;-2.084;2022-10-17T08:02:23;101605.59;;;14.56;100.00
64192;BME280;50497;50.720;-2.084;2022-10-17T08:04:50;101617.03;;;14.62;100.00
64192;BME280;50497;50.720;-2.084;2022-10-17T08:07:16;101624.63;;;14.71;100.00
64192;BME280;50497;50.720;-2.084;2022-10-17T08:09:46;101637.78;;;14.77;100.00
64192;BME280;50497;50.720;-2.084;2022-10-17T08:12:11;101639.47;;;14.80;100.00
64192;BME280;50497;50.720;-2.084;2022-10-17T08:14:39;101636.38;;;14.87;100.00
64192;BME280;50497;50.720;-2.084;2022-10-17T08:17:05;101638.84;;;14.92;100.00
64192;BME280;50497;50.720;-2.084;2022-10-17T08:19:37;101650.47;;;14.92;100.00
64192;BME280;50497;50.720;-2.084;2022-10-17T08:22:04;101636.44;;;14.86;100.00
64192;BME280;50497;50.720;-2.084;2022-10-17T08:24:29;101670.06;;;15.13;100.00
64192;BME280;50497;50.720;-2.084;2022-10-17T08:26:55;101653.50;;;15.21;100.00
64192;BME280;50497;50.720;-2.084;2022-10-17T08:29:23;101666.94;;;15.39;100.00
64192;BME280;50497;50.720;-2.084;2022-10-17T08:31:48;101672.19;;;15.42;100.00
64192;BME280;50497;50.720;-2.084;2022-10-17T08:34:14;101679.50;;;15.40;100.00
64192;BME280;50497;50.720;-2.084;2022-10-17T08:36:40;101692.03;;;15.41;100.00
64192;BME280;50497;50.720;-2.084;2022-10-17T08:39:06;101692.28;;;15.36;100.00
64192;BME280;50497;50.720;-2.084;2022-10-17T08:46:58;101700.47;;;16.51;100.00
64192;BME280;50497;50.720;-2.084;2022-10-17T08:49:39;101703.25;;;17.11;100.00
64192;BME280;50497;50.720;-2.084;2022-10-17T08:52:18;101696.94;;;16.96;100.00
64192;BME280;50497;50.720;-2.084;2022-10-17T08:54:46;101691.16;;;17.33;100.00
64192;BME280;50497;50.720;-2.084;2022-10-17T08:57:14;101695.47;;;17.21;100.00
64192;BME280;50497;50.720;-2.084;2022-10-17T08:59:42;101710.78;;;17.06;100.00
64192;BME280;50497;50.720;-2.084;2022-10-17T09:03:26;101708.88;;;17.08;100.00
64192;BME280;50497;50.720;-2.084;2022-10-17T09:05:39;101720.72;;;17.36;100.00
64192;BME280;50497;50.720;-2.084;2022-10-17T09:08:32;101734.50;;;17.01;100.00
64192;BME280;50497;50.720;-2.084;2022-10-17T09:14:40;101759.41;;;16.11;100.00
64192;BME280;50497;50.720;-2.084;2022-10-17T09:17:41;101763.28;;;16.05;100.00
64192;BME280;50497;50.720;-2.084;2022-10-17T09:20:18;101763.72;;;15.80;100.00
64192;BME280;50497;50.720;-2.084;2022-10-17T09:23:04;101756.28;;;15.67;100.00
64192;BME280;50497;50.720;-2.084;2022-10-17T09:25:40;101780.06;;;15.94;100.00
64192;BME280;50497;50.720;-2.084;2022-10-17T09:28:18;101777.22;;;16.47;100.00
64192;BME280;50497;50.720;-2.084;2022-10-17T09:30:49;101778.50;;;16.89;100.00
64192;BME280;50497;50.720;-2.084;2022-10-17T09:33:37;101762.91;;;17.24;100.00
64192;BME280;50497;50.720;-2.084;2022-10-17T09:36:08;101757.56;;;16.92;100.00
64192;BME280;50497;50.720;-2.084;2022-10-17T09:38:39;101759.72;;;17.02;100.00
64192;BME280;50497;50.720;-2.084;2022-10-17T09:41:12;101782.91;;;16.90;100.00
64192;BME280;50497;50.720;-2.084;2022-10-17T09:43:39;101775.50;;;16.77;100.00
64192;BME280;50497;50.720;-2.084;2022-10-17T09:46:10;101775.31;;;16.80;100.00
64192;BME280;50497;50.720;-2.084;2022-10-17T09:48:51;101781.19;;;17.65;100.00
64192;BME280;50497;50.720;-2.084;2022-10-17T09:51:18;101776.25;;;17.58;100.00
64192;BME280;50497;50.720;-2.084;2022-10-17T09:53:49;101782.59;;;17.42;100.00
64192;BME280;50497;50.720;-2.084;2022-10-17T09:56:18;101755.66;;;17.25;100.00
64192;BME280;50497;50.720;-2.084;2022-10-17T09:58:49;101764.09;;;16.88;100.00
64192;BME280;50497;50.720;-2.084;2022-10-17T10:01:28;101772.38;;;17.31;100.00
64192;BME280;50497;50.720;-2.084;2022-10-17T10:04:08;101762.94;;;17.08;100.00
64192;BME280;50497;50.720;-2.084;2022-10-17T10:06:34;101775.81;;;17.19;100.00
64192;BME280;50497;50.720;-2.084;2022-10-17T10:09:00;101786.97;;;17.29;100.00
64192;BME280;50497;50.720;-2.084;2022-10-17T10:11:50;101763.72;;;17.41;100.00
64192;BME280;50497;50.720;-2.084;2022-10-17T10:14:34;101777.81;;;17.62;100.00
64192;BME280;50497;50.720;-2.084;2022-10-17T10:17:05;101772.00;;;18.27;100.00
64192;BME280;50497;50.720;-2.084;2022-10-17T10:19:49;101777.47;;;18.54;100.00
64192;BME280;50497;50.720;-2.084;2022-10-17T10:22:17;101778.78;;;18.90;100.00
64192;BME280;50497;50.720;-2.084;2022-10-17T10:24:43;101789.53;;;19.19;100.00
64192;BME280;50497;50.720;-2.084;2022-10-17T10:27:14;101772.47;;;19.44;100.00
64192;BME280;50497;50.720;-2.084;2022-10-17T10:29:42;101782.22;;;20.12;100.00
64192;BME280;50497;50.720;-2.084;2022-10-17T10:32:18;101794.06;;;20.37;100.00
64192;BME280;50497;50.720;-2.084;2022-10-17T10:34:52;101807.22;;;20.18;100.00
64192;BME280;50497;50.720;-2.084;2022-10-17T10:37:32;101790.06;;;19.51;100.00
64192;BME280;50497;50.720;-2.084;2022-10-17T10:40:05;101803.53;;;19.53;100.00
64192;BME280;50497;50.720;-2.084;2022-10-17T10:42:36;101814.69;;;19.08;100.00
64192;BME280;50497;50.720;-2.084;2022-10-17T10:45:20;101813.03;;;19.06;100.00
64192;BME280;50497;50.720;-2.084;2022-10-17T10:47:55;101826.56;;;18.93;100.00
64192;BME280;50497;50.720;-2.084;2022-10-17T10:55:31;101835.31;;;20.94;100.00
64192;BME280;50497;50.720;-2.084;2022-10-17T10:58:19;101835.84;;;21.23;100.00
64192;BME280;50497;50.720;-2.084;2022-10-17T11:00:46;101841.84;;;21.52;100.00
64192;BME280;50497;50.720;-2.084;2022-10-17T11:03:18;101833.63;;;21.76;100.00
64192;BME280;50497;50.720;-2.084;2022-10-17T11:05:50;101843.03;;;22.98;100.00
64192;BME280;50497;50.720;-2.084;2022-10-17T11:08:49;101850.97;;;23.13;100.00
64192;BME280;50497;50.720;-2.084;2022-10-17T11:11:28;101842.03;;;23.11;100.00
64192;BME280;50497;50.720;-2.084;2022-10-17T11:14:00;101842.50;;;22.14;100.00
64192;BME280;50497;50.720;-2.084;2022-10-17T11:16:40;101842.22;;;21.11;100.00
64192;BME280;50497;50.720;-2.084;2022-10-17T11:19:23;101861.16;;;20.24;100.00
64192;BME280;50497;50.720;-2.084;2022-10-17T11:22:07;101871.28;;;19.82;100.00
64192;BME280;50497;50.720;-2.084;2022-10-17T11:24:38;101861.19;;;19.56;100.00
64192;BME280;50497;50.720;-2.084;2022-10-17T11:27:12;101877.03;;;19.77;100.00
64192;BME280;50497;50.720;-2.084;2022-10-17T11:29:39;101874.47;;;20.91;100.00
64192;BME280;50497;50.720;-2.084;2022-10-17T11:32:20;101859.13;;;21.27;100.00
64192;BME280;50497;50.720;-2.084;2022-10-17T11:34:52;101863.53;;;22.70;100.00
64192;BME280;50497;50.720;-2.084;2022-10-17T11:37:23;101852.63;;;22.81;100.00
64192;BME280;50497;50.720;-2.084;2022-10-17T11:39:53;101866.50;;;21.98;100.00
64192;BME280;50497;50.720;-2.084;2022-10-17T11:42:24;101861.25;;;21.11;100.00
64192;BME280;50497;50.720;-2.084;2022-10-17T11:44:57;101878.41;;;20.48;100.00
64192;BME280;50497;50.720;-2.084;2022-10-17T11:47:33;101885.38;;;20.78;100.00
64192;BME280;50497;50.720;-2.084;2022-10-17T11:55:40;101885.25;;;21.78;100.00
64192;BME280;50497;50.720;-2.084;2022-10-17T11:58:40;101887.47;;;21.73;100.00
64192;BME280;50497;50.720;-2.084;2022-10-17T12:01:21;101892.31;;;21.32;100.00
64192;BME280;50497;50.720;-2.084;2022-10-17T12:09:39;101874.56;;;22.57;100.00
64192;BME280;50497;50.720;-2.084;2022-10-17T12:12:06;101882.66;;;23.48;100.00
64192;BME280;50497;50.720;-2.084;2022-10-17T12:16:57;101893.13;;;22.86;100.00
64192;BME280;50497;50.720;-2.084;2022-10-17T12:19:23;101887.47;;;23.44;100.00
64192;BME280;50497;50.720;-2.084;2022-10-17T12:22:28;101874.06;;;23.85;100.00
64192;BME280;50497;50.720;-2.084;2022-10-17T12:24:58;101867.22;;;24.32;100.00
64192;BME280;50497;50.720;-2.084;2022-10-17T12:27:37;101882.56;;;24.54;100.00
64192;BME280;50497;50.720;-2.084;2022-10-17T12:35:22;101893.00;;;24.40;100.00
64192;BME280;50497;50.720;-2.084;2022-10-17T12:43:01;101888.97;;;24.96;100.00
64192;BME280;50497;50.720;-2.084;2022-10-17T12:45:51;101901.00;;;26.51;93.29
64192;BME280;50497;50.720;-2.084;2022-10-17T12:51:15;101902.72;;;24.75;93.62
64192;BME280;50497;50.720;-2.084;2022-10-17T12:54:00;101910.69;;;24.35;88.83
64192;BME280;50497;50.720;-2.084;2022-10-17T12:56:44;101896.31;;;24.95;91.21
64192;BME280;50497;50.720;-2.084;2022-10-17T12:59:19;101899.88;;;24.55;93.13
64192;BME280;50497;50.720;-2.084;2022-10-17T13:01:47;101903.84;;;23.99;100.00
64192;BME280;50497;50.720;-2.084;2022-10-17T13:04:15;101899.63;;;24.58;98.08
64192;BME280;50497;50.720;-2.084;2022-10-17T13:06:46;101902.75;;;24.11;96.28
64192;BME280;50497;50.720;-2.084;2022-10-17T13:09:25;101907.88;;;24.99;100.00
64192;BME280;50497;50.720;-2.084;2022-10-17T13:11:52;101921.03;;;24.32;100.00
64192;BME280;50497;50.720;-2.084;2022-10-17T13:14:22;101909.88;;;23.70;99.03
64192;BME280;50497;50.720;-2.084;2022-10-17T13:16:54;101915.38;;;24.03;100.00
64192;BME280;50497;50.720;-2.084;2022-10-17T13:19:22;101918.09;;;24.66;97.86
64192;BME280;50497;50.720;-2.084;2022-10-17T13:22:16;101917.31;;;24.85;97.89
64192;BME280;50497;50.720;-2.084;2022-10-17T13:24:42;101898.06;;;24.44;94.08
64192;BME280;50497;50.720;-2.084;2022-10-17T13:27:28;101909.31;;;23.99;95.03
64192;BME280;50497;50.720;-2.084;2022-10-17T13:29:56;101907.81;;;23.95;100.00
64192;BME280;50497;50.720;-2.084;2022-10-17T13:32:23;101906.81;;;24.38;100.00
64192;BME280;50497;50.720;-2.084;2022-10-17T13:35:13;101922.50;;;24.36;99.73
64192;BME280;50497;50.720;-2.084;2022-10-17T13:37:41;101910.69;;;24.87;100.00
64192;BME280;50497;50.720;-2.084;2022-10-17T13:40:18;101918.91;;;24.14;98.80
64192;BME280;50497;50.720;-2.084;2022-10-17T13:42:45;101913.50;;;23.71;100.00
64192;BME280;50497;50.720;-2.084;2022-10-17T13:45:31;101931.72;;;23.70;100.00
64192;BME280;50497;50.720;-2.084;2022-10-17T13:48:17;101953.13;;;22.41;100.00
64192;BME280;50497;50.720;-2.084;2022-10-17T13:50:46;101955.31;;;23.16;100.00
64192;BME280;50497;50.720;-2.084;2022-10-17T13:58:49;101955.69;;;22.78;100.00
64192;BME280;50497;50.720;-2.084;2022-10-17T14:01:16;101966.94;;;22.26;100.00
64192;BME280;50497;50.720;-2.084;2022-10-17T14:03:43;101961.88;;;21.36;100.00